Airfield :
LOGIN :

Register | Disclaimer

   EN    FR    IT 

 










Legend :    VFR   Marginal VFR   IFR   Intensive IFR   Very Intensive IFR
Visi :
Ceiling :
>= 8 km
>= 3000ft
5 to 8 km
1000 to 3000 ft
1500m to 5 km
500 to 1000 ft
800 to 1500m
200 to 500 ft
< 800m
< 200 ft
Symbols :   Thunderstorms  Fog  Heavy snow  Heavy precipitations  Wind > 20 kt
SIGMETs :     Misc.  Thunderstorms  Icing  Turbulence  Mountain Waves  Volcanic Ashes







- Airport Elevation : 53 ft
- IATA code : HRT


EGXU - RAF Linton-on-Ouse

CURRENT METAR :
  • 221050Z AUTO 23004KT 9999 // NCD 11/06 Q1016

EXPIRED METARs :
  • 220950Z AUTO 25007KT 9999 // NCD 11/06 Q1016
  • 220850Z AUTO 23007KT 9999 // SCT160/// 10/06 Q1016

Expired Forecast.
No reported NOTAMs for that airfield.
1 SIGMET reported for the London FIR (EGTT) :
 
Severe icing
EGTT SIGMET 05 VALID 221000/221400 EGRR
EGTT LONDON FIR SEV ICE FCST WI N5013 W00212 - N5140 W00530 - N5229 W00432 - N5050 W00005 - N5013 W00212 FL060/150 MOV E 25KT NC=



MET'MAP, your aeronautical weather chart ! - Copyright ORBIFLY December 2007 - Disclaimer

ORBIFLY MET'MAP TEAM :

Programming & Development : Alexandra Zaïnal
Concept & Development : Baudouin d'Aumeries
Co-Development & Prog : Marc-Olivier Méhu
Technical & hardware support : Manuel Goepfert

Contact : metmap@orbifly.com




SOURCES & CREDITS :

   NOAA